Portada
METAR-TAF:

METAR-TAF

Aeroports :

Kosrae, Micronèsia

latitud: 05-21N, longitud: 162-57E, altitud: 3 m

Observació

L'informe es va fer fa 4 hores i 53 minuts, a les 01:50 UTC
Vent 9 kt del Est/Nord-Est
Temperatura 29°C
Humitat 70%
Pressió 1010 hPa
Visibilitat: 16.1 km
Escasses núvols a una alçada de 2000 ft
Núvols disperses a una alçada de 13000 ft
Cel ennuvolat a una alçada de 30000 ft

METAR: PTSA 240150Z COR 06009KT 10SM FEW020 SCT130 BKN300 29/23 A2982 RMK LAST

Hora: 17:43 (06:43 UTC)

Pronòstic

L'informe es va fer fa 7 hores i 21 minuts, a les 23:22 UTC
Pronòstic vàlid del 24 a les 00 UTC al 24 a les 24 UTC
Vent 8 kt del Nord-Est
Visibilitat: 10 km
Núvols disperses a una alçada de 1900 ft
Cel ennuvolat a una alçada de 13000 ft
Cel cobert a una alçada de 30000 ft
xàfecs en les proximitats

TAF: PTSA 232322Z 2400/2424 05008KT P6SM VCSH SCT019 BKN130 OVC300

Observacions i pronòstics meteorològics de més de 4000 aeroports (METAR i TAF).

Les estacions disponibles són els punts grocs i vermells al mapa.

Posi el ratolí al punt desitjat per veure el nom de l'estació.

Feu clic per veure les observacions i els pronòstics meteorològics.

Per canviar el mapa: feu clic els botons verds amb una creu de color negre per apropar; al botó verd amb un guió per allunyar la imatge; o en les fletxes verdes per a mapes adjacents.


METAR-TAF: